Time;durP1;ratioP1;P1;durP2;ratioP2;P2;SDS_P1;SDS_P2;PMS_P1;PMS_P2;Temp;Humidity;BMP_temperature;BMP_pressure;BME280_temperature;BME280_humidity;BME280_pressure;Samples;Min_cycle;Max_cycle;Signal;HPM_P1;HPM_P2
2023/09/19 00:01:20;;;;;;;;;;;;;;;;;;5071097;28;19977;-62
2023/09/19 00:03:46;;;;;;;;;;;;;;;;;;5070902;28;20013;-62
2023/09/19 00:06:15;;;;;;;;;;;;;;;;;;5070826;28;20504;-62
2023/09/19 00:08:44;;;;;;;;;;;;;;;;;;5073065;28;19988;-62
2023/09/19 00:11:10;;;;;;;;;;;;;;;;;;5074413;28;20437;-61
2023/09/19 00:13:36;;;;;;;;;;;;;;;;;;5074667;28;19981;-62
2023/09/19 00:16:03;;;;;;;;;;;;;;;;;;5074532;28;19981;-62
2023/09/19 00:18:32;;;;;;;;;;;;;;;;;;5074510;28;20501;-63
2023/09/19 00:20:58;;;;;;;;;;;;;;;;;;5074236;28;20009;-63
2023/09/19 00:23:24;;;;;;;;;;;;;;;;;;5074277;28;20100;-62
2023/09/19 00:25:51;;;;;;;;;;;;;;;;;;5074391;28;19981;-62
2023/09/19 00:28:18;;;;;;;;;;;;;;;;;;5074284;28;19977;-62
2023/09/19 00:30:44;;;;;;;;;;;;;;;;;;5074452;28;19985;-61
2023/09/19 00:33:11;;;;;;;;;;;;;;;;;;5073985;28;19981;-63
2023/09/19 00:35:37;;;;;;;;;;;;;;;;;;5074166;28;20005;-62
2023/09/19 00:38:03;;;;;;;;;;;;;;;;;;5073180;28;20007;-62
2023/09/19 00:40:30;;;;;;;;;;;;;;;;;;5074175;28;20323;-61
2023/09/19 00:42:56;;;;;;;;;;;;;;;;;;5074173;28;20462;-62
2023/09/19 00:45:22;;;;;;;;;;;;;;;;;;5073673;28;19977;-61
2023/09/19 00:47:50;;;;;;;;;;;;;;;;;;5074049;28;19987;-61
2023/09/19 00:50:17;;;;;;;;;;;;;;;;;;5074002;28;19992;-63
2023/09/19 00:52:43;;;;;;;;;;;;;;;;;;5074122;28;19984;-62
2023/09/19 00:55:09;;;;;;;;;;;;;;;;;;5073887;28;20005;-63
2023/09/19 00:57:35;;;;;;;;;;;;;;;;;;5073663;28;19989;-61
2023/09/19 01:00:05;;;;;;;;;;;;;;;;;;5073824;28;20001;-62
2023/09/19 01:02:31;;;;;;;;;;;;;;;;;;5073783;28;20437;-62
2023/09/19 01:04:57;;;;;;;;;;;;;;;;;;5073359;28;20020;-63
2023/09/19 01:07:23;;;;;;;;;;;;;;;;;;5073514;28;19984;-63
2023/09/19 01:09:49;;;;;;;;;;;;;;;;;;5073421;28;20087;-62
2023/09/19 01:12:17;;;;;;;;;;;;;;;;;;5073789;28;19985;-61
2023/09/19 01:14:43;;;;;;;;;;;;;;;;;;5073385;28;20001;-61
2023/09/19 01:17:09;;;;;;;;;;;;;;;;;;5073414;28;20077;-61
2023/09/19 01:19:35;;;;;;;;;;;;;;;;;;5072880;28;19989;-62
2023/09/19 01:22:02;;;;;;;;;;;;;;;;;;5071930;28;19988;-62
2023/09/19 01:24:28;;;;;;;;;;;;;;;;;;5073051;28;20003;-62
2023/09/19 01:26:55;;;;;;;;;;;;;;;;;;5073187;28;19977;-61
2023/09/19 01:29:21;;;;;;;;;;;;;;;;;;5073179;28;20570;-61
2023/09/19 01:31:47;;;;;;;;;;;;;;;;;;5072650;28;20156;-62
2023/09/19 01:34:13;;;;;;;;;;;;;;;;;;5073199;28;20100;-62
2023/09/19 01:36:38;;;;;;;;;;;;;;;;;;5072922;28;19989;-63
2023/09/19 01:39:10;;;;;;;;;;;;;;;;;;5072961;28;19984;-62
2023/09/19 01:41:36;;;;;;;;;;;;;;;;;;5072752;28;19985;-63
2023/09/19 01:44:03;;;;;;;;;;;;;;;;;;5072715;28;19977;-64
2023/09/19 01:46:29;;;;;;;;;;;;;;;;;;5072924;28;20001;-61
2023/09/19 01:48:55;;;;;;;;;;;;;;;;;;5072690;28;20008;-62
2023/09/19 01:51:21;;;;;;;;;;;;;;;;;;5072697;28;20458;-61
2023/09/19 01:53:48;;;;;;;;;;;;;;;;;;5072635;28;20075;-62
2023/09/19 01:56:13;;;;;;;;;;;;;;;;;;5072500;28;19989;-62
2023/09/19 01:58:40;;;;;;;;;;;;;;;;;;5072302;28;20023;-62
2023/09/19 02:01:06;;;;;;;;;;;;;;;;;;5072401;28;19993;-61
2023/09/19 02:03:32;;;;;;;;;;;;;;;;;;5072207;28;20496;-62
2023/09/19 02:05:58;;;;;;;;;;;;;;;;;;5072130;28;19997;-63
2023/09/19 02:08:24;;;;;;;;;;;;;;;;;;5072495;28;19982;-61
2023/09/19 02:10:50;;;;;;;;;;;;;;;;;;5072180;28;19977;-62
2023/09/19 02:13:17;;;;;;;;;;;;;;;;;;5072223;28;20021;-61
2023/09/19 02:15:44;;;;;;;;;;;;;;;;;;5072127;28;20009;-62
2023/09/19 02:18:11;;;;;;;;;;;;;;;;;;5072281;28;19985;-61
2023/09/19 02:20:37;;;;;;;;;;;;;;;;;;5072338;28;20035;-61
2023/09/19 02:23:03;;;;;;;;;;;;;;;;;;5072146;28;19988;-61
2023/09/19 02:25:30;;;;;;;;;;;;;;;;;;5072082;28;20453;-61
2023/09/19 02:27:58;;;;;;;;;;;;;;;;;;5071861;28;19977;-61
2023/09/19 02:30:25;;;;;;;;;;;;;;;;;;5071685;28;19978;-62
2023/09/19 02:32:51;;;;;;;;;;;;;;;;;;5072345;28;19989;-62
2023/09/19 02:35:19;;;;;;;;;;;;;;;;;;5071773;28;20424;-62
2023/09/19 02:37:45;;;;;;;;;;;;;;;;;;5071996;28;19981;-63
2023/09/19 02:40:21;;;;;;;;;;;;;;;;;;5071633;28;19977;-61
2023/09/19 02:42:49;;;;;;;;;;;;;;;;;;5071932;28;20031;-62
2023/09/19 02:45:15;;;;;;;;;;;;;;;;;;5071953;28;19981;-62
2023/09/19 02:47:41;;;;;;;;;;;;;;;;;;5071706;28;19978;-61
2023/09/19 02:50:09;;;;;;;;;;;;;;;;;;5070537;28;20520;-62
2023/09/19 02:52:35;;;;;;;;;;;;;;;;;;5071499;28;20076;-62
2023/09/19 02:55:01;;;;;;;;;;;;;;;;;;5071238;28;20434;-62
2023/09/19 02:57:27;;;;;;;;;;;;;;;;;;5071934;28;19981;-62
2023/09/19 02:59:53;;;;;;;;;;;;;;;;;;5071889;28;19988;-63
2023/09/19 03:02:19;;;;;;;;;;;;;;;;;;5071612;28;20064;-61
2023/09/19 03:04:46;;;;;;;;;;;;;;;;;;5071232;28;20554;-62
2023/09/19 03:07:12;;;;;;;;;;;;;;;;;;5071557;28;19981;-62
2023/09/19 03:09:38;;;;;;;;;;;;;;;;;;5071547;28;20441;-62
2023/09/19 03:12:06;;;;;;;;;;;;;;;;;;5071839;28;19991;-62
2023/09/19 03:14:35;;;;;;;;;;;;;;;;;;5071125;28;20361;-62
2023/09/19 03:17:04;;;;;;;;;;;;;;;;;;5071358;28;20506;-61
2023/09/19 03:19:30;;;;;;;;;;;;;;;;;;5071571;28;20477;-61
2023/09/19 03:21:57;;;;;;;;;;;;;;;;;;5071354;28;19981;-64
2023/09/19 03:24:23;;;;;;;;;;;;;;;;;;5071737;28;19985;-62
2023/09/19 03:26:49;;;;;;;;;;;;;;;;;;5070911;28;19978;-62
2023/09/19 03:29:17;;;;;;;;;;;;;;;;;;5071334;28;19981;-62
2023/09/19 03:31:42;;;;;;;;;;;;;;;;;;5071297;28;19989;-64
2023/09/19 03:34:09;;;;;;;;;;;;;;;;;;5071330;28;20001;-66
2023/09/19 03:36:34;;;;;;;;;;;;;;;;;;5071258;28;19988;-65
2023/09/19 03:39:00;;;;;;;;;;;;;;;;;;5071124;28;19981;-66
2023/09/19 03:41:26;;;;;;;;;;;;;;;;;;5072594;28;19987;-65
2023/09/19 03:43:52;;;;;;;;;;;;;;;;;;5075002;28;20060;-64
2023/09/19 03:46:19;;;;;;;;;;;;;;;;;;5075187;28;20445;-64
2023/09/19 03:48:45;;;;;;;;;;;;;;;;;;5074909;28;19984;-64
2023/09/19 03:51:11;;;;;;;;;;;;;;;;;;5075002;28;19981;-65
2023/09/19 03:53:37;;;;;;;;;;;;;;;;;;5074945;28;20081;-65
2023/09/19 03:56:03;;;;;;;;;;;;;;;;;;5074858;28;20013;-65
2023/09/19 03:58:28;;;;;;;;;;;;;;;;;;5074910;28;19977;-63
2023/09/19 04:00:54;;;;;;;;;;;;;;;;;;5074403;28;19978;-64
2023/09/19 04:03:21;;;;;;;;;;;;;;;;;;5074836;28;20013;-64
2023/09/19 04:05:47;;;;;;;;;;;;;;;;;;5074499;28;20001;-63
2023/09/19 04:08:14;;;;;;;;;;;;;;;;;;5074784;28;19981;-63
2023/09/19 04:10:40;;;;;;;;;;;;;;;;;;5074741;28;19981;-64
2023/09/19 04:13:07;;;;;;;;;;;;;;;;;;5074316;28;20405;-63
2023/09/19 04:15:33;;;;;;;;;;;;;;;;;;5074494;28;20092;-63
2023/09/19 04:17:59;;;;;;;;;;;;;;;;;;5074428;28;19977;-63
2023/09/19 04:20:25;;;;;;;;;;;;;;;;;;5074363;28;19988;-63
2023/09/19 04:22:51;;;;;;;;;;;;;;;;;;5074191;28;20027;-62
2023/09/19 04:25:18;;;;;;;;;;;;;;;;;;5074358;28;20040;-62
2023/09/19 04:27:44;;;;;;;;;;;;;;;;;;5074606;28;20453;-63
2023/09/19 04:30:11;;;;;;;;;;;;;;;;;;5074500;28;20056;-61
2023/09/19 04:32:39;;;;;;;;;;;;;;;;;;5074484;28;20035;-62
2023/09/19 04:35:06;;;;;;;;;;;;;;;;;;5073897;28;20005;-62
2023/09/19 04:37:32;;;;;;;;;;;;;;;;;;5074401;28;20007;-62
2023/09/19 04:39:58;;;;;;;;;;;;;;;;;;5074250;28;19984;-61
2023/09/19 04:42:25;;;;;;;;;;;;;;;;;;5074229;28;19981;-61
2023/09/19 04:44:53;;;;;;;;;;;;;;;;;;5074183;28;19988;-63
2023/09/19 04:47:20;;;;;;;;;;;;;;;;;;5073606;28;19985;-62
2023/09/19 04:49:47;;;;;;;;;;;;;;;;;;5073883;28;20068;-61
2023/09/19 04:52:15;;;;;;;;;;;;;;;;;;5073822;28;20027;-61
2023/09/19 04:54:41;;;;;;;;;;;;;;;;;;5073396;28;20008;-61
2023/09/19 04:57:07;;;;;;;;;;;;;;;;;;5073838;28;20022;-61
2023/09/19 04:59:33;;;;;;;;;;;;;;;;;;5073703;28;19981;-61
2023/09/19 05:01:59;;;;;;;;;;;;;;;;;;5073751;28;19984;-61
2023/09/19 05:04:25;;;;;;;;;;;;;;;;;;5073544;28;20017;-61
2023/09/19 05:06:51;;;;;;;;;;;;;;;;;;5073661;28;20008;-61
2023/09/19 05:09:19;;;;;;;;;;;;;;;;;;5058352;28;20072;-61
2023/09/19 05:11:46;;;;;;;;;;;;;;;;;;5053447;28;20047;-62
2023/09/19 05:14:12;;;;;;;;;;;;;;;;;;5065894;28;20041;-61
2023/09/19 05:16:38;;;;;;;;;;;;;;;;;;5072938;28;20438;-60
2023/09/19 05:19:04;;;;;;;;;;;;;;;;;;5072937;28;20004;-62
2023/09/19 05:21:30;;;;;;;;;;;;;;;;;;5072930;28;20449;-60
2023/09/19 05:23:56;;;;;;;;;;;;;;;;;;5072937;28;19989;-61
2023/09/19 05:26:22;;;;;;;;;;;;;;;;;;5072965;28;19984;-61
2023/09/19 05:28:48;;;;;;;;;;;;;;;;;;5072752;28;19981;-61
2023/09/19 05:31:15;;;;;;;;;;;;;;;;;;5073009;28;19987;-60
2023/09/19 05:33:42;;;;;;;;;;;;;;;;;;5072746;28;19977;-62
2023/09/19 05:36:10;;;;;;;;;;;;;;;;;;5072806;28;20078;-62
2023/09/19 05:38:36;;;;;;;;;;;;;;;;;;5072615;28;20050;-62
2023/09/19 05:41:02;;;;;;;;;;;;;;;;;;5072706;28;19981;-60
2023/09/19 05:43:28;;;;;;;;;;;;;;;;;;5072651;28;20034;-60
2023/09/19 05:45:56;;;;;;;;;;;;;;;;;;5072526;28;19989;-64
2023/09/19 05:48:22;;;;;;;;;;;;;;;;;;5072693;28;20005;-65
2023/09/19 05:50:51;;;;;;;;;;;;;;;;;;5070703;28;20539;-64
2023/09/19 05:53:18;;;;;;;;;;;;;;;;;;5070846;28;19981;-64
2023/09/19 05:55:45;;;;;;;;;;;;;;;;;;5070624;28;20005;-65
2023/09/19 05:58:13;;;;;;;;;;;;;;;;;;5070752;28;20384;-64
2023/09/19 06:00:41;;;;;;;;;;;;;;;;;;5071214;28;20084;-64
2023/09/19 06:03:07;;;;;;;;;;;;;;;;;;5070964;28;20059;-63
2023/09/19 06:05:33;;;;;;;;;;;;;;;;;;5069733;28;19997;-63
2023/09/19 06:07:59;;;;;;;;;;;;;;;;;;5072223;28;20003;-65
2023/09/19 06:10:25;;;;;;;;;;;;;;;;;;5072415;28;20001;-65
2023/09/19 06:12:51;;;;;;;;;;;;;;;;;;5071845;28;20521;-65
2023/09/19 06:15:18;;;;;;;;;;;;;;;;;;5066007;28;20487;-64
2023/09/19 06:17:44;;;;;;;;;;;;;;;;;;5061237;28;19977;-64
2023/09/19 06:20:13;;;;;;;;;;;;;;;;;;5072123;28;20008;-65
2023/09/19 06:22:41;;;;;;;;;;;;;;;;;;5054409;28;19981;-64
2023/09/19 06:25:07;;;;;;;;;;;;;;;;;;5052105;28;19988;-63
2023/09/19 06:27:36;;;;;;;;;;;;;;;;;;5051810;28;19981;-63
2023/09/19 06:30:02;;;;;;;;;;;;;;;;;;5052001;28;19985;-62
2023/09/19 06:32:28;;;;;;;;;;;;;;;;;;5067320;28;19985;-63
2023/09/19 06:34:54;;;;;;;;;;;;;;;;;;5054526;28;20066;-63
2023/09/19 06:37:20;;;;;;;;;;;;;;;;;;5051974;28;19982;-63
2023/09/19 06:39:49;;;;;;;;;;;;;;;;;;5052126;28;19986;-61
2023/09/19 06:42:16;;;;;;;;;;;;;;;;;;5051685;28;19982;-61
2023/09/19 06:44:42;;;;;;;;;;;;;;;;;;5063809;28;20445;-61
2023/09/19 06:47:09;;;;;;;;;;;;;;;;;;5071471;28;19985;-61
2023/09/19 06:49:35;;;;;;;;;;;;;;;;;;5067260;28;20083;-63
2023/09/19 06:52:02;;;;;;;;;;;;;;;;;;5062870;28;20080;-64
2023/09/19 06:54:31;;;;;;;;;;;;;;;;;;5071162;28;20047;-64
2023/09/19 06:56:58;;;;;;;;;;;;;;;;;;5053376;28;19981;-64
2023/09/19 06:59:24;;;;;;;;;;;;;;;;;;5051450;28;20005;-63
2023/09/19 07:01:50;;;;;;;;;;;;;;;;;;5051604;28;20427;-64
2023/09/19 07:04:19;;;;;;;;;;;;;;;;;;5053949;28;20096;-63
2023/09/19 07:06:45;;;;;;;;;;;;;;;;;;5054363;28;20007;-63
2023/09/19 07:09:12;;;;;;;;;;;;;;;;;;5052644;28;19982;-64
2023/09/19 07:11:38;;;;;;;;;;;;;;;;;;5051295;28;20043;-64
2023/09/19 07:14:05;;;;;;;;;;;;;;;;;;5058770;28;20097;-63
2023/09/19 07:16:31;;;;;;;;;;;;;;;;;;5054551;28;20489;-64
2023/09/19 07:18:58;;;;;;;;;;;;;;;;;;5061474;28;20032;-62
2023/09/19 07:21:24;;;;;;;;;;;;;;;;;;5071422;28;20357;-62
2023/09/19 07:23:50;;;;;;;;;;;;;;;;;;5071219;28;20083;-61
2023/09/19 07:26:16;;;;;;;;;;;;;;;;;;5071037;28;20514;-60
2023/09/19 07:28:42;;;;;;;;;;;;;;;;;;5071279;28;20084;-61
2023/09/19 07:31:09;;;;;;;;;;;;;;;;;;5064274;28;19988;-62
2023/09/19 07:33:36;;;;;;;;;;;;;;;;;;5050880;28;20389;-61
2023/09/19 07:36:01;;;;;;;;;;;;;;;;;;5050909;28;20446;-62
2023/09/19 07:38:28;;;;;;;;;;;;;;;;;;5050868;28;19989;-61
2023/09/19 07:40:55;;;;;;;;;;;;;;;;;;5050758;28;19987;-60
2023/09/19 07:43:20;;;;;;;;;;;;;;;;;;5051038;28;20345;-60
2023/09/19 07:45:47;;;;;;;;;;;;;;;;;;5051116;28;19981;-66
2023/09/19 07:48:15;;;;;;;;;;;;;;;;;;5050209;28;20345;-61
2023/09/19 07:50:43;;;;;;;;;;;;;;;;;;5050953;28;19985;-60
2023/09/19 07:53:10;;;;;;;;;;;;;;;;;;5050686;28;19978;-61
2023/09/19 07:55:36;;;;;;;;;;;;;;;;;;5051105;28;20020;-61
2023/09/19 07:58:04;;;;;;;;;;;;;;;;;;5051316;28;19982;-61
2023/09/19 08:00:30;;;;;;;;;;;;;;;;;;5050945;28;20042;-61
2023/09/19 08:02:56;;;;;;;;;;;;;;;;;;5050467;28;20078;-62
2023/09/19 08:05:22;;;;;;;;;;;;;;;;;;5066263;28;20060;-61
2023/09/19 08:07:48;;;;;;;;;;;;;;;;;;5071145;28;20358;-60
2023/09/19 08:10:15;;;;;;;;;;;;;;;;;;5070784;28;19990;-62
2023/09/19 08:12:46;;;;;;;;;;;;;;;;;;5065544;28;19977;-61
2023/09/19 08:15:12;;;;;;;;;;;;;;;;;;5052182;28;20109;-61
2023/09/19 08:17:38;;;;;;;;;;;;;;;;;;5061270;28;20078;-62
2023/09/19 08:20:05;;;;;;;;;;;;;;;;;;5064066;28;20068;-62
2023/09/19 08:22:31;;;;;;;;;;;;;;;;;;5055477;28;19988;-62
2023/09/19 08:24:58;;;;;;;;;;;;;;;;;;5052472;28;20423;-61
2023/09/19 08:27:26;;;;;;;;;;;;;;;;;;5071165;28;19981;-60
2023/09/19 08:29:52;;;;;;;;;;;;;;;;;;5081199;28;20031;-60
2023/09/19 08:32:23;;;;;;;;;;;;;;;;;;5054781;28;19990;-60
2023/09/19 08:34:49;;;;;;;;;;;;;;;;;;5073296;28;20096;-60
2023/09/19 08:37:17;;;;;;;;;;;;;;;;;;5068661;28;20051;-60
2023/09/19 08:39:44;;;;;;;;;;;;;;;;;;5054232;28;20633;-61
2023/09/19 08:42:11;;;;;;;;;;;;;;;;;;5054180;28;19981;-61
2023/09/19 08:44:40;;;;;;;;;;;;;;;;;;5060384;28;20457;-61
2023/09/19 08:47:07;;;;;;;;;;;;;;;;;;5064287;28;19988;-59
2023/09/19 08:49:33;;;;;;;;;;;;;;;;;;5068171;28;20013;-59
2023/09/19 08:51:59;;;;;;;;;;;;;;;;;;5087742;28;20417;-60
2023/09/19 08:54:29;;;;;;;;;;;;;;;;;;5071110;28;20046;-60
2023/09/19 08:56:55;;;;;;;;;;;;;;;;;;5061745;28;20064;-60
2023/09/19 08:59:24;;;;;;;;;;;;;;;;;;5073572;28;20548;-62
2023/09/19 09:01:53;;;;;;;;;;;;;;;;;;5079718;28;19977;-62
2023/09/19 09:04:20;;;;;;;;;;;;;;;;;;5068290;28;20024;-61
2023/09/19 09:06:48;;;;;;;;;;;;;;;;;;5061927;28;20000;-61
2023/09/19 09:09:14;;;;;;;;;;;;;;;;;;5093863;28;19976;-61
2023/09/19 09:11:40;;;;;;;;;;;;;;;;;;5092369;28;20043;-61
2023/09/19 09:14:07;;;;;;;;;;;;;;;;;;5077945;28;20518;-61
2023/09/19 09:16:33;;;;;;;;;;;;;;;;;;5084717;28;19993;-62
2023/09/19 09:18:59;;;;;;;;;;;;;;;;;;5080387;28;19985;-62
2023/09/19 09:21:25;;;;;;;;;;;;;;;;;;5078837;28;19982;-60
2023/09/19 09:23:51;;;;;;;;;;;;;;;;;;5067502;28;20400;-60
2023/09/19 09:26:17;;;;;;;;;;;;;;;;;;5093227;28;20371;-61
2023/09/19 09:28:43;;;;;;;;;;;;;;;;;;5090625;28;19981;-61
2023/09/19 09:31:12;;;;;;;;;;;;;;;;;;5084637;28;19984;-62
2023/09/19 09:33:39;;;;;;;;;;;;;;;;;;5073127;28;20036;-61
2023/09/19 09:36:06;;;;;;;;;;;;;;;;;;5084835;28;20108;-61
2023/09/19 09:38:32;;;;;;;;;;;;;;;;;;5076741;28;20020;-61
2023/09/19 09:41:07;;;;;;;;;;;;;;;;;;5053300;28;20346;-59
2023/09/19 09:43:36;;;;;;;;;;;;;;;;;;5052987;28;20027;-60
2023/09/19 09:46:10;;;;;;;;;;;;;;;;;;5081543;28;20079;-62
2023/09/19 09:48:38;;;;;;;;;;;;;;;;;;5072587;28;19981;-63
2023/09/19 09:51:07;;;;;;;;;;;;;;;;;;5072826;28;20355;-61
2023/09/19 09:53:34;;;;;;;;;;;;;;;;;;5071502;28;19992;-60
2023/09/19 09:55:59;;;;;;;;;;;;;;;;;;5060216;28;20024;-62
2023/09/19 09:58:29;;;;;;;;;;;;;;;;;;5052551;28;20326;-62
2023/09/19 10:00:57;;;;;;;;;;;;;;;;;;5054459;28;19981;-61
2023/09/19 10:03:23;;;;;;;;;;;;;;;;;;5083913;28;20078;-60
2023/09/19 10:05:51;;;;;;;;;;;;;;;;;;5072551;28;20024;-62
2023/09/19 10:08:19;;;;;;;;;;;;;;;;;;5081575;28;19985;-63
2023/09/19 10:10:54;;;;;;;;;;;;;;;;;;5092331;28;19980;-62
2023/09/19 10:13:25;;;;;;;;;;;;;;;;;;5062593;28;20433;-61
2023/09/19 10:15:51;;;;;;;;;;;;;;;;;;5055697;28;20378;-61
2023/09/19 10:18:18;;;;;;;;;;;;;;;;;;5067343;28;19989;-61
2023/09/19 10:20:45;;;;;;;;;;;;;;;;;;5070629;28;19990;-61
2023/09/19 10:23:12;;;;;;;;;;;;;;;;;;5055341;28;19986;-63
2023/09/19 10:25:38;;;;;;;;;;;;;;;;;;5082310;28;19981;-62
2023/09/19 10:28:06;;;;;;;;;;;;;;;;;;5073878;28;20076;-61
2023/09/19 10:30:34;;;;;;;;;;;;;;;;;;5058514;28;20084;-61
2023/09/19 10:33:00;;;;;;;;;;;;;;;;;;5056633;28;19981;-62
2023/09/19 10:35:25;;;;;;;;;;;;;;;;;;5058963;28;20005;-61
2023/09/19 10:37:52;;;;;;;;;;;;;;;;;;5055656;28;20039;-62
2023/09/19 10:40:18;;;;;;;;;;;;;;;;;;5053265;28;19981;-62
2023/09/19 10:42:44;;;;;;;;;;;;;;;;;;5062045;28;20008;-61
2023/09/19 10:45:13;;;;;;;;;;;;;;;;;;5059964;28;20017;-62
2023/09/19 10:47:39;;;;;;;;;;;;;;;;;;5070476;28;19992;-62
2023/09/19 10:50:06;;;;;;;;;;;;;;;;;;5054488;28;20350;-61
2023/09/19 10:52:34;;;;;;;;;;;;;;;;;;5052465;28;19981;-62
2023/09/19 10:55:02;;;;;;;;;;;;;;;;;;5051523;28;20045;-61
2023/09/19 10:57:28;;;;;;;;;;;;;;;;;;5053402;28;20018;-63
2023/09/19 10:59:55;;;;;;;;;;;;;;;;;;5059800;28;20349;-62
2023/09/19 11:02:21;;;;;;;;;;;;;;;;;;5061379;28;19982;-61
2023/09/19 11:04:48;;;;;;;;;;;;;;;;;;5065458;28;20019;-62
2023/09/19 11:07:15;;;;;;;;;;;;;;;;;;5083271;28;19989;-61
2023/09/19 11:09:41;;;;;;;;;;;;;;;;;;5071857;28;20445;-61
2023/09/19 11:12:07;;;;;;;;;;;;;;;;;;5077736;28;19991;-62
2023/09/19 11:14:34;;;;;;;;;;;;;;;;;;5091462;28;20048;-61
2023/09/19 11:17:00;;;;;;;;;;;;;;;;;;5076485;28;19981;-60
2023/09/19 11:19:29;;;;;;;;;;;;;;;;;;5071473;28;19981;-62
2023/09/19 11:21:55;;;;;;;;;;;;;;;;;;5070355;28;19985;-62
2023/09/19 11:24:24;;;;;;;;;;;;;;;;;;5076526;28;20353;-61
2023/09/19 11:26:51;;;;;;;;;;;;;;;;;;5057242;28;19989;-62
2023/09/19 11:29:17;;;;;;;;;;;;;;;;;;5068944;28;20038;-61
2023/09/19 11:31:44;;;;;;;;;;;;;;;;;;5069133;28;19981;-63
2023/09/19 11:34:10;;;;;;;;;;;;;;;;;;5071465;28;19988;-62
2023/09/19 11:36:36;;;;;;;;;;;;;;;;;;5067925;28;19994;-61
2023/09/19 11:39:08;;;;;;;;;;;;;;;;;;5064333;28;19985;-61
2023/09/19 11:41:34;;;;;;;;;;;;;;;;;;5051274;28;20468;-62
2023/09/19 11:44:03;;;;;;;;;;;;;;;;;;5060446;28;19985;-63
2023/09/19 11:46:29;;;;;;;;;;;;;;;;;;5057427;28;19989;-62
2023/09/19 11:48:56;;;;;;;;;;;;;;;;;;5053448;28;19992;-61
2023/09/19 11:51:23;;;;;;;;;;;;;;;;;;5050884;28;20374;-62
2023/09/19 11:53:49;;;;;;;;;;;;;;;;;;5055946;28;19985;-62
2023/09/19 11:56:15;;;;;;;;;;;;;;;;;;5050371;28;20009;-62
2023/09/19 11:58:42;;;;;;;;;;;;;;;;;;5062505;28;20064;-62
2023/09/19 12:01:13;;;;;;;;;;;;;;;;;;5068046;28;20074;-62
2023/09/19 12:03:41;;;;;;;;;;;;;;;;;;5051783;28;20347;-63
2023/09/19 12:06:07;;;;;;;;;;;;;;;;;;5072544;28;20059;-62
2023/09/19 12:08:33;;;;;;;;;;;;;;;;;;5074726;28;20034;-62
2023/09/19 12:10:59;;;;;;;;;;;;;;;;;;5074718;28;19985;-62
2023/09/19 12:13:25;;;;;;;;;;;;;;;;;;5074592;28;20341;-62
2023/09/19 12:15:51;;;;;;;;;;;;;;;;;;5073261;28;20008;-62
2023/09/19 12:18:17;;;;;;;;;;;;;;;;;;5074649;28;20051;-63
2023/09/19 12:20:46;;;;;;;;;;;;;;;;;;5074689;28;19981;-61
2023/09/19 12:23:13;;;;;;;;;;;;;;;;;;5074707;28;20422;-63
2023/09/19 12:25:39;;;;;;;;;;;;;;;;;;5074545;28;19989;-62
2023/09/19 12:28:07;;;;;;;;;;;;;;;;;;5074599;28;19981;-62
2023/09/19 12:30:36;;;;;;;;;;;;;;;;;;5074697;28;19986;-62
2023/09/19 12:33:03;;;;;;;;;;;;;;;;;;5074329;28;19981;-62
2023/09/19 12:35:30;;;;;;;;;;;;;;;;;;5074461;28;20103;-62
2023/09/19 12:37:56;;;;;;;;;;;;;;;;;;5074223;28;19987;-61
2023/09/19 12:40:22;;;;;;;;;;;;;;;;;;5072532;28;20412;-62
2023/09/19 12:42:48;;;;;;;;;;;;;;;;;;5074310;28;20007;-62
2023/09/19 12:45:15;;;;;;;;;;;;;;;;;;5074470;28;20439;-62
2023/09/19 12:47:43;;;;;;;;;;;;;;;;;;5074118;28;19982;-63
2023/09/19 12:50:19;;;;;;;;;;;;;;;;;;5074269;28;20028;-62
2023/09/19 12:52:47;;;;;;;;;;;;;;;;;;5073743;28;20080;-62
2023/09/19 12:55:14;;;;;;;;;;;;;;;;;;5073676;28;20016;-62
2023/09/19 12:57:40;;;;;;;;;;;;;;;;;;5074009;28;19981;-62
2023/09/19 13:00:07;;;;;;;;;;;;;;;;;;5073787;28;19978;-61
2023/09/19 13:02:33;;;;;;;;;;;;;;;;;;5073855;28;20028;-62
2023/09/19 13:05:00;;;;;;;;;;;;;;;;;;5073091;28;20048;-62
2023/09/19 13:07:26;;;;;;;;;;;;;;;;;;5073614;28;20430;-62
2023/09/19 13:09:51;;;;;;;;;;;;;;;;;;5073642;28;20034;-64
2023/09/19 13:12:18;;;;;;;;;;;;;;;;;;5074042;28;19985;-62
2023/09/19 13:14:46;;;;;;;;;;;;;;;;;;5071640;28;20063;-62
2023/09/19 13:17:15;;;;;;;;;;;;;;;;;;5073388;28;19981;-62
2023/09/19 13:19:43;;;;;;;;;;;;;;;;;;5073402;28;20085;-62
2023/09/19 13:22:09;;;;;;;;;;;;;;;;;;5072076;28;20356;-63
2023/09/19 13:24:38;;;;;;;;;;;;;;;;;;5073399;28;20072;-62
2023/09/19 13:27:06;;;;;;;;;;;;;;;;;;5073161;28;19983;-63
2023/09/19 13:29:32;;;;;;;;;;;;;;;;;;5073261;28;20021;-62
2023/09/19 13:31:58;;;;;;;;;;;;;;;;;;5073473;28;20315;-61
2023/09/19 13:34:24;;;;;;;;;;;;;;;;;;5073399;28;19984;-62
2023/09/19 13:36:50;;;;;;;;;;;;;;;;;;5073048;28;20456;-63
2023/09/19 13:39:16;;;;;;;;;;;;;;;;;;5073183;28;19981;-64
2023/09/19 13:41:43;;;;;;;;;;;;;;;;;;5072633;28;19981;-62
2023/09/19 13:44:10;;;;;;;;;;;;;;;;;;5073098;28;19981;-62
2023/09/19 13:46:36;;;;;;;;;;;;;;;;;;5072944;28;19981;-63
2023/09/19 13:49:03;;;;;;;;;;;;;;;;;;5072513;28;19988;-63
2023/09/19 13:51:29;;;;;;;;;;;;;;;;;;5072761;28;20478;-62
2023/09/19 13:53:55;;;;;;;;;;;;;;;;;;5072766;28;20062;-62
2023/09/19 13:56:21;;;;;;;;;;;;;;;;;;5072314;28;20143;-62
2023/09/19 13:58:47;;;;;;;;;;;;;;;;;;5072502;28;19981;-63
2023/09/19 14:01:13;;;;;;;;;;;;;;;;;;5072531;28;19981;-62
2023/09/19 14:03:39;;;;;;;;;;;;;;;;;;5072364;28;20596;-62
2023/09/19 14:06:05;;;;;;;;;;;;;;;;;;5072383;28;20396;-62
2023/09/19 14:08:33;;;;;;;;;;;;;;;;;;5072525;28;20032;-63
2023/09/19 14:10:59;;;;;;;;;;;;;;;;;;5072103;28;20488;-61
2023/09/19 14:13:25;;;;;;;;;;;;;;;;;;5072267;28;20039;-62
2023/09/19 14:15:51;;;;;;;;;;;;;;;;;;5072320;28;20567;-62
2023/09/19 14:18:18;;;;;;;;;;;;;;;;;;5072114;28;20088;-62
2023/09/19 14:20:44;;;;;;;;;;;;;;;;;;5072358;28;20078;-62
2023/09/19 14:23:10;;;;;;;;;;;;;;;;;;5070586;28;20138;-63
2023/09/19 14:25:36;;;;;;;;;;;;;;;;;;5071235;28;19981;-62
2023/09/19 14:28:02;;;;;;;;;;;;;;;;;;5071939;28;19981;-63
2023/09/19 14:30:28;;;;;;;;;;;;;;;;;;5068717;28;20453;-62
2023/09/19 14:32:54;;;;;;;;;;;;;;;;;;5072291;28;19985;-62
2023/09/19 14:35:22;;;;;;;;;;;;;;;;;;5071710;28;20006;-63
2023/09/19 14:37:48;;;;;;;;;;;;;;;;;;5068102;28;20028;-63
2023/09/19 14:40:17;;;;;;;;;;;;;;;;;;5051527;28;19989;-63
2023/09/19 14:42:43;;;;;;;;;;;;;;;;;;5051819;28;20060;-63
2023/09/19 14:45:09;;;;;;;;;;;;;;;;;;5051838;28;19981;-63
2023/09/19 14:47:35;;;;;;;;;;;;;;;;;;5050698;28;19986;-62
2023/09/19 14:50:01;;;;;;;;;;;;;;;;;;5051634;28;20001;-65
2023/09/19 14:52:28;;;;;;;;;;;;;;;;;;5051559;28;19989;-66
2023/09/19 14:54:54;;;;;;;;;;;;;;;;;;5051469;28;20103;-65
2023/09/19 14:57:20;;;;;;;;;;;;;;;;;;5051538;28;20388;-66
2023/09/19 14:59:46;;;;;;;;;;;;;;;;;;5051626;28;19981;-65
2023/09/19 15:02:13;;;;;;;;;;;;;;;;;;5051635;28;20434;-66
2023/09/19 15:04:40;;;;;;;;;;;;;;;;;;5062294;28;20020;-67
2023/09/19 15:07:06;;;;;;;;;;;;;;;;;;5071612;28;20068;-66
2023/09/19 15:09:33;;;;;;;;;;;;;;;;;;5070317;28;20092;-65
2023/09/19 15:11:59;;;;;;;;;;;;;;;;;;5071632;28;20318;-66
2023/09/19 15:14:25;;;;;;;;;;;;;;;;;;5071284;28;20032;-66
2023/09/19 15:16:51;;;;;;;;;;;;;;;;;;5068283;28;19982;-65
2023/09/19 15:19:17;;;;;;;;;;;;;;;;;;5071603;28;19988;-67
2023/09/19 15:21:43;;;;;;;;;;;;;;;;;;5069206;28;20069;-66
2023/09/19 15:24:11;;;;;;;;;;;;;;;;;;5056505;28;20076;-67
2023/09/19 15:26:40;;;;;;;;;;;;;;;;;;5068962;28;20430;-66
2023/09/19 15:29:06;;;;;;;;;;;;;;;;;;5057864;28;19989;-68
2023/09/19 15:31:32;;;;;;;;;;;;;;;;;;5063248;28;20035;-67
2023/09/19 15:33:58;;;;;;;;;;;;;;;;;;5053836;28;19989;-67
2023/09/19 15:36:24;;;;;;;;;;;;;;;;;;5068444;28;20494;-65
2023/09/19 15:38:51;;;;;;;;;;;;;;;;;;5074710;28;19982;-65
2023/09/19 15:41:17;;;;;;;;;;;;;;;;;;5064240;28;20594;-66
2023/09/19 15:43:43;;;;;;;;;;;;;;;;;;5069051;28;19981;-64
2023/09/19 15:46:09;;;;;;;;;;;;;;;;;;5073992;28;20036;-66
2023/09/19 15:48:36;;;;;;;;;;;;;;;;;;5054963;28;20042;-66
2023/09/19 15:51:02;;;;;;;;;;;;;;;;;;5055364;28;20008;-66
2023/09/19 15:53:28;;;;;;;;;;;;;;;;;;5055299;28;20350;-65
2023/09/19 15:55:54;;;;;;;;;;;;;;;;;;5052988;28;20010;-65
2023/09/19 15:58:20;;;;;;;;;;;;;;;;;;5054267;28;19993;-66
2023/09/19 16:00:46;;;;;;;;;;;;;;;;;;5060334;28;19986;-65
2023/09/19 16:03:11;;;;;;;;;;;;;;;;;;5057894;28;20038;-66
2023/09/19 16:05:39;;;;;;;;;;;;;;;;;;5064683;28;20048;-64
2023/09/19 16:08:05;;;;;;;;;;;;;;;;;;5067771;28;19981;-65
2023/09/19 16:10:31;;;;;;;;;;;;;;;;;;5073485;28;20079;-64
2023/09/19 16:12:57;;;;;;;;;;;;;;;;;;5072458;28;19985;-65
2023/09/19 16:15:23;;;;;;;;;;;;;;;;;;5054961;28;20009;-64
2023/09/19 16:17:49;;;;;;;;;;;;;;;;;;5054661;28;19977;-64
2023/09/19 16:20:16;;;;;;;;;;;;;;;;;;5074401;28;20396;-64
2023/09/19 16:22:42;;;;;;;;;;;;;;;;;;5058883;28;19986;-64
2023/09/19 16:25:11;;;;;;;;;;;;;;;;;;5064168;28;20484;-65
2023/09/19 16:27:37;;;;;;;;;;;;;;;;;;5053018;28;20564;-65
2023/09/19 16:30:04;;;;;;;;;;;;;;;;;;5061895;28;19984;-62
2023/09/19 16:32:30;;;;;;;;;;;;;;;;;;5056200;28;19985;-65
2023/09/19 16:34:56;;;;;;;;;;;;;;;;;;5053709;28;20486;-64
2023/09/19 16:37:23;;;;;;;;;;;;;;;;;;5062562;28;19992;-63
2023/09/19 16:39:50;;;;;;;;;;;;;;;;;;5076331;28;20089;-65
2023/09/19 16:42:15;;;;;;;;;;;;;;;;;;5094583;28;20004;-64